Time;durP1;ratioP1;P1;durP2;ratioP2;P2;SDS_P1;SDS_P2;PMS_P1;PMS_P2;Temp;Humidity;BMP_temperature;BMP_pressure;BME280_temperature;BME280_humidity;BME280_pressure;Samples;Min_cycle;Max_cycle;Signal;HPM_P1;HPM_P2
2022/05/25 00:01:42;;;;;;;3.33;1.60;;;;;;;;;;12577327;28;20043;-78
2022/05/25 00:07:44;;;;;;;2.65;1.67;;;;;;;;;;12594491;28;20048;-77
2022/05/25 00:13:45;;;;;;;2.45;1.50;;;;;;;;;;12576988;28;20040;-77
2022/05/25 00:19:59;;;;;;;2.50;1.33;;;;;;;;;;12594874;28;20035;-78
2022/05/25 00:26:01;;;;;;;1.95;1.60;;;;;;;;;;12577477;28;20044;-77
2022/05/25 00:32:06;;;;;;;1.38;1.27;;;;;;;;;;12559839;28;20059;-77
2022/05/25 00:38:09;;;;;;;2.08;1.48;;;;;;;;;;12560084;28;20395;-78
2022/05/25 00:44:11;;;;;;;1.77;1.52;;;;;;;;;;12594226;28;20401;-78
2022/05/25 00:50:14;;;;;;;2.08;1.63;;;;;;;;;;12594004;28;20493;-77
2022/05/25 00:56:17;;;;;;;1.45;1.30;;;;;;;;;;12594170;28;20029;-78
2022/05/25 01:02:19;;;;;;;1.95;1.52;;;;;;;;;;12576534;28;20028;-78
2022/05/25 01:08:39;;;;;;;1.50;1.40;;;;;;;;;;12575786;28;20045;-78
2022/05/25 01:14:47;;;;;;;2.08;1.67;;;;;;;;;;12575899;28;20052;-78
2022/05/25 01:21:03;;;;;;;1.42;1.33;;;;;;;;;;12593284;28;20390;-78
2022/05/25 01:27:21;;;;;;;1.42;1.33;;;;;;;;;;12578091;28;20041;-78
2022/05/25 01:33:53;;;;;;;2.70;2.33;;;;;;;;;;12602321;28;20055;-78
2022/05/25 01:40:01;;;;;;;2.58;1.90;;;;;;;;;;12580243;28;20412;-78
2022/05/25 01:46:10;;;;;;;2.80;2.20;;;;;;;;;;12601099;28;20040;-78
2022/05/25 01:52:16;;;;;;;2.75;2.55;;;;;;;;;;12582942;28;20044;-78
2022/05/25 01:58:19;;;;;;;2.92;2.20;;;;;;;;;;12583470;28;20040;-78
2022/05/25 02:04:20;;;;;;;3.13;2.40;;;;;;;;;;12600842;28;20040;-78
2022/05/25 02:10:37;;;;;;;3.67;2.67;;;;;;;;;;12600533;28;20053;-78
2022/05/25 02:16:49;;;;;;;5.47;2.42;;;;;;;;;;12600085;28;20029;-78
2022/05/25 02:22:52;;;;;;;2.72;2.00;;;;;;;;;;12582407;28;20036;-78
2022/05/25 02:29:10;;;;;;;2.85;2.20;;;;;;;;;;12599480;28;20036;-78
2022/05/25 02:35:12;;;;;;;3.38;2.22;;;;;;;;;;12599736;28;20060;-78
2022/05/25 02:41:34;;;;;;;1.95;1.75;;;;;;;;;;12598868;28;20413;-78
2022/05/25 02:47:35;;;;;;;2.28;2.08;;;;;;;;;;12580722;28;20044;-78
2022/05/25 02:53:37;;;;;;;2.47;1.70;;;;;;;;;;12580680;28;20032;-78
2022/05/25 02:59:39;;;;;;;3.60;2.78;;;;;;;;;;12597921;28;20036;-78
2022/05/25 03:05:42;;;;;;;3.13;2.70;;;;;;;;;;12598560;28;20032;-78
2022/05/25 03:11:43;;;;;;;3.75;2.33;;;;;;;;;;12597355;28;20063;-78
2022/05/25 03:17:45;;;;;;;3.13;2.13;;;;;;;;;;12562277;28;20033;-78
2022/05/25 03:23:47;;;;;;;5.03;2.73;;;;;;;;;;12562300;28;20071;-78
2022/05/25 03:29:48;;;;;;;4.55;2.90;;;;;;;;;;12596323;28;20298;-78
2022/05/25 03:35:50;;;;;;;3.88;2.63;;;;;;;;;;12578472;28;20044;-78
2022/05/25 03:41:53;;;;;;;2.95;2.20;;;;;;;;;;12595738;28;20516;-78
2022/05/25 03:47:55;;;;;;;4.00;2.30;;;;;;;;;;12595090;28;20059;-78
2022/05/25 03:53:57;;;;;;;4.40;2.55;;;;;;;;;;12577458;28;20032;-78
2022/05/25 03:59:59;;;;;;;2.97;2.45;;;;;;;;;;12577174;28;20036;-78
2022/05/25 04:06:00;;;;;;;3.40;2.13;;;;;;;;;;12577460;28;20044;-78
2022/05/25 04:12:02;;;;;;;1.75;1.60;;;;;;;;;;12577157;28;20037;-78
2022/05/25 04:18:04;;;;;;;3.50;1.77;;;;;;;;;;12577487;28;20043;-78
2022/05/25 04:24:06;;;;;;;4.32;2.10;;;;;;;;;;12577436;28;20041;-78
2022/05/25 04:30:09;;;;;;;3.30;1.80;;;;;;;;;;12594877;28;20047;-78
2022/05/25 04:36:31;;;;;;;3.72;2.17;;;;;;;;;;12594481;28;20494;-77
2022/05/25 04:42:33;;;;;;;3.70;1.90;;;;;;;;;;12576403;28;20040;-77
2022/05/25 04:48:35;;;;;;;2.13;1.58;;;;;;;;;;12576884;28;20059;-77
2022/05/25 04:54:36;;;;;;;3.63;1.73;;;;;;;;;;12594318;28;20032;-77
2022/05/25 05:00:38;;;;;;;2.65;1.50;;;;;;;;;;12596391;28;20504;-78
2022/05/25 05:07:00;;;;;;;1.60;1.50;;;;;;;;;;12606192;28;20425;-78
2022/05/25 05:13:04;;;;;;;1.20;1.13;;;;;;;;;;12603344;28;20473;-77
2022/05/25 05:19:06;;;;;;;1.67;1.50;;;;;;;;;;12584769;28;20358;-78
2022/05/25 05:25:27;;;;;;;1.55;1.30;;;;;;;;;;12570980;28;20067;-78
2022/05/25 05:31:28;;;;;;;1.92;1.35;;;;;;;;;;12586563;28;20052;-78
2022/05/25 05:37:33;;;;;;;2.33;1.50;;;;;;;;;;12584593;28;20063;-80
2022/05/25 05:43:35;;;;;;;1.35;1.00;;;;;;;;;;12585521;28;20029;-82
2022/05/25 05:49:38;;;;;;;1.30;1.20;;;;;;;;;;12596190;28;20468;-82
2022/05/25 05:55:44;;;;;;;1.38;1.27;;;;;;;;;;12573634;28;20035;-85
2022/05/25 06:01:45;;;;;;;1.90;0.98;;;;;;;;;;12578262;28;20043;-86
2022/05/25 06:07:47;;;;;;;1.83;1.10;;;;;;;;;;12552314;28;20055;-85
2022/05/25 06:13:49;;;;;;;2.67;1.70;;;;;;;;;;12575209;28;20397;-85
2022/05/25 06:19:51;;;;;;;3.40;1.63;;;;;;;;;;12555955;28;20549;-80
2022/05/25 06:25:52;;;;;;;3.25;1.98;;;;;;;;;;12569944;28;20504;-80
2022/05/25 06:31:54;;;;;;;1.77;1.67;;;;;;;;;;12546384;28;20044;-80
2022/05/25 06:37:56;;;;;;;2.13;1.40;;;;;;;;;;12534707;28;20028;-79
2022/05/25 06:43:57;;;;;;;1.42;1.20;;;;;;;;;;12570779;28;20036;-79
2022/05/25 06:49:59;;;;;;;2.97;1.17;;;;;;;;;;12576413;28;20805;-81
2022/05/25 06:56:01;;;;;;;1.48;1.20;;;;;;;;;;12561265;28;20024;-82
2022/05/25 07:02:03;;;;;;;2.60;0.90;;;;;;;;;;12560247;28;20037;-81
2022/05/25 07:08:04;;;;;;;1.88;1.60;;;;;;;;;;12543972;28;20056;-81
2022/05/25 07:14:06;;;;;;;2.85;1.48;;;;;;;;;;12539178;28;20033;-81
2022/05/25 07:20:09;;;;;;;5.78;2.08;;;;;;;;;;12552281;28;20040;-80
2022/05/25 07:26:12;;;;;;;2.80;1.45;;;;;;;;;;12546529;28;20523;-82
2022/05/25 07:32:14;;;;;;;1.10;0.80;;;;;;;;;;12565792;28;20060;-81
2022/05/25 07:38:16;;;;;;;2.53;1.67;;;;;;;;;;12550162;28;20029;-81
2022/05/25 07:44:21;;;;;;;2.45;1.40;;;;;;;;;;12562806;28;20029;-82
2022/05/25 07:50:23;;;;;;;2.05;1.50;;;;;;;;;;12562410;28;20041;-81
2022/05/25 07:56:26;;;;;;;3.13;1.75;;;;;;;;;;12547993;28;20033;-81
2022/05/25 08:08:56;;;;;;;1.80;1.25;;;;;;;;;;12564733;28;20051;-79
2022/05/25 08:15:00;;;;;;;2.95;1.15;;;;;;;;;;12552253;28;20385;-78
2022/05/25 08:21:01;;;;;;;1.40;1.23;;;;;;;;;;12540211;28;20040;-79
2022/05/25 08:27:03;;;;;;;2.33;1.38;;;;;;;;;;12557784;28;20040;-80
2022/05/25 08:33:05;;;;;;;1.65;1.55;;;;;;;;;;12583891;28;20045;-80
2022/05/25 08:39:06;;;;;;;9.07;1.83;;;;;;;;;;12538436;28;20036;-80
2022/05/25 08:45:08;;;;;;;4.40;1.60;;;;;;;;;;12554941;28;20039;-82
2022/05/25 08:51:12;;;;;;;4.75;1.88;;;;;;;;;;12547148;28;20033;-82
2022/05/25 08:57:17;;;;;;;2.53;1.67;;;;;;;;;;12535000;28;20029;-83
2022/05/25 09:03:22;;;;;;;4.97;2.20;;;;;;;;;;12561106;28;20469;-81
2022/05/25 09:09:26;;;;;;;3.50;2.75;;;;;;;;;;12533043;28;20041;-81
2022/05/25 09:15:33;;;;;;;3.65;2.90;;;;;;;;;;12554626;28;20033;-81
2022/05/25 09:21:37;;;;;;;4.80;2.70;;;;;;;;;;12538978;28;20028;-84
2022/05/25 09:28:03;;;;;;;5.10;2.45;;;;;;;;;;12543497;28;20037;-83
2022/05/25 09:34:08;;;;;;;3.38;2.17;;;;;;;;;;12515725;28;20492;-84
2022/05/25 09:40:24;;;;;;;4.03;2.38;;;;;;;;;;12578360;28;20045;-83
2022/05/25 09:46:30;;;;;;;2.85;2.20;;;;;;;;;;12555779;28;20393;-83
2022/05/25 09:52:46;;;;;;;4.93;2.63;;;;;;;;;;12548339;28;20358;-83
2022/05/25 09:58:51;;;;;;;4.45;2.30;;;;;;;;;;12526155;28;20039;-83
2022/05/25 10:04:56;;;;;;;5.68;3.00;;;;;;;;;;12541544;28;20040;-82
2022/05/25 10:11:00;;;;;;;4.82;2.20;;;;;;;;;;12551936;28;20053;-84
2022/05/25 10:17:07;;;;;;;4.28;2.97;;;;;;;;;;12571138;28;20059;-86
2022/05/25 10:23:26;;;;;;;3.13;2.08;;;;;;;;;;12579752;28;20519;-85
2022/05/25 10:42:21;;;;;;;2.45;1.85;;;;;;;;;;12562373;28;20041;-86
2022/05/25 10:48:44;;;;;;;5.30;2.90;;;;;;;;;;12566641;28;20176;-86
2022/05/25 10:54:45;;;;;;;3.17;2.47;;;;;;;;;;12579875;28;20024;-87
2022/05/25 11:00:57;;;;;;;3.42;2.30;;;;;;;;;;12565322;28;20031;-87
2022/05/25 11:07:13;;;;;;;3.60;2.13;;;;;;;;;;12587408;28;20052;-88
2022/05/25 11:13:35;;;;;;;5.82;2.38;;;;;;;;;;12560973;28;20033;-83
2022/05/25 11:19:39;;;;;;;2.70;1.95;;;;;;;;;;12545284;28;20048;-85
2022/05/25 11:25:51;;;;;;;1.95;1.75;;;;;;;;;;12563303;28;20036;-86
2022/05/25 11:32:02;;;;;;;4.15;2.00;;;;;;;;;;12572345;28;20064;-82
2022/05/25 11:38:24;;;;;;;2.17;1.75;;;;;;;;;;12573101;28;20029;-82
2022/05/25 11:44:29;;;;;;;2.75;2.00;;;;;;;;;;12555259;28;20040;-82
2022/05/25 11:50:45;;;;;;;3.92;2.25;;;;;;;;;;12571761;28;20055;-81
2022/05/25 11:57:05;;;;;;;4.45;2.55;;;;;;;;;;12531047;28;20276;-81
2022/05/25 12:03:16;;;;;;;3.20;2.00;;;;;;;;;;12539926;28;20032;-82
2022/05/25 12:09:18;;;;;;;2.90;1.70;;;;;;;;;;12559770;28;20055;-79
2022/05/25 12:15:38;;;;;;;3.38;2.10;;;;;;;;;;12593973;28;20047;-78
2022/05/25 12:21:51;;;;;;;4.93;1.73;;;;;;;;;;12593871;28;20032;-78
2022/05/25 12:27:55;;;;;;;3.22;1.95;;;;;;;;;;12558791;28;20625;-79
2022/05/25 12:33:57;;;;;;;3.28;2.47;;;;;;;;;;12525927;28;20056;-79
2022/05/25 12:40:04;;;;;;;5.07;2.30;;;;;;;;;;12589634;28;20039;-79
2022/05/25 12:52:27;;;;;;;3.10;2.05;;;;;;;;;;12593839;28;20032;-79
2022/05/25 12:58:33;;;;;;;1.73;1.60;;;;;;;;;;12590979;28;20029;-78
2022/05/25 13:04:44;;;;;;;1.30;1.10;;;;;;;;;;12573075;28;20074;-79
2022/05/25 13:10:49;;;;;;;4.15;2.30;;;;;;;;;;12590498;28;20051;-79
2022/05/25 13:16:52;;;;;;;5.00;2.80;;;;;;;;;;12574706;28;20048;-78
2022/05/25 13:23:00;;;;;;;2.67;1.98;;;;;;;;;;12594982;28;20044;-78
2022/05/25 13:29:38;;;;;;;2.33;1.70;;;;;;;;;;12567648;28;20044;-78
2022/05/25 13:35:48;;;;;;;2.28;1.55;;;;;;;;;;12463975;28;20322;-78
2022/05/25 13:41:54;;;;;;;3.03;1.58;;;;;;;;;;12601358;28;20048;-78
2022/05/25 13:47:57;;;;;;;3.10;1.85;;;;;;;;;;12583094;28;20427;-78
2022/05/25 13:53:59;;;;;;;2.03;1.50;;;;;;;;;;12566544;28;20525;-79
2022/05/25 14:00:19;;;;;;;1.70;1.38;;;;;;;;;;12601002;28;20024;-79
2022/05/25 14:06:21;;;;;;;2.08;1.20;;;;;;;;;;12582431;28;20055;-79
2022/05/25 14:12:23;;;;;;;1.25;1.02;;;;;;;;;;12582308;28;20028;-79
2022/05/25 14:18:25;;;;;;;2.03;1.30;;;;;;;;;;12599627;28;20492;-79
2022/05/25 14:24:30;;;;;;;2.60;1.65;;;;;;;;;;12581827;28;20036;-80
2022/05/25 14:30:35;;;;;;;2.85;2.15;;;;;;;;;;12581348;28;20051;-79
2022/05/25 14:36:37;;;;;;;3.10;1.77;;;;;;;;;;12580955;28;20524;-79
2022/05/25 14:43:05;;;;;;;3.40;1.85;;;;;;;;;;12598862;28;20037;-79
2022/05/25 14:49:15;;;;;;;3.40;2.10;;;;;;;;;;12593988;28;20048;-79
2022/05/25 14:55:23;;;;;;;4.00;2.13;;;;;;;;;;12599091;28;20043;-79
2022/05/25 15:01:31;;;;;;;3.03;1.98;;;;;;;;;;12598205;28;20040;-79
2022/05/25 15:07:32;;;;;;;2.67;1.50;;;;;;;;;;12598297;28;20040;-79
2022/05/25 15:20:09;;;;;;;2.78;1.67;;;;;;;;;;12597181;28;20036;-80
2022/05/25 15:26:16;;;;;;;3.07;1.60;;;;;;;;;;12596716;28;20037;-79
2022/05/25 15:32:18;;;;;;;1.85;1.50;;;;;;;;;;12578268;28;20071;-80
2022/05/25 15:38:25;;;;;;;2.08;1.52;;;;;;;;;;12578320;28;20041;-80
2022/05/25 15:44:26;;;;;;;1.80;1.30;;;;;;;;;;12594889;28;20021;-79
2022/05/25 15:50:29;;;;;;;1.75;1.30;;;;;;;;;;12596084;28;20049;-79
2022/05/25 15:56:32;;;;;;;3.72;1.95;;;;;;;;;;12595562;28;20065;-79
2022/05/25 16:02:35;;;;;;;2.88;1.95;;;;;;;;;;12595589;28;20183;-80
2022/05/25 16:14:58;;;;;;;4.43;4.03;;;;;;;;;;12594295;28;20044;-80
2022/05/25 16:21:00;;;;;;;3.60;3.15;;;;;;;;;;12593907;28;20461;-81
2022/05/25 16:27:04;;;;;;;4.13;2.92;;;;;;;;;;12594047;28;20559;-81
2022/05/25 16:33:06;;;;;;;3.33;2.50;;;;;;;;;;12593944;28;20048;-81
2022/05/25 16:39:08;;;;;;;3.40;2.28;;;;;;;;;;12576671;28;20481;-81
2022/05/25 16:45:11;;;;;;;3.15;1.90;;;;;;;;;;12593411;28;20037;-81
2022/05/25 16:51:13;;;;;;;3.20;2.08;;;;;;;;;;12593415;28;20052;-81
2022/05/25 16:57:15;;;;;;;3.58;2.17;;;;;;;;;;12596474;28;20041;-80
2022/05/25 17:03:17;;;;;;;4.15;2.08;;;;;;;;;;12604255;28;20036;-80
2022/05/25 17:09:20;;;;;;;2.40;2.10;;;;;;;;;;12602984;28;20048;-80
2022/05/25 17:15:22;;;;;;;2.67;2.17;;;;;;;;;;12585010;28;20389;-80
2022/05/25 17:21:26;;;;;;;3.40;2.45;;;;;;;;;;12602267;28;20035;-80
2022/05/25 17:27:28;;;;;;;5.10;2.20;;;;;;;;;;12602232;28;20045;-80
2022/05/25 17:33:30;;;;;;;3.90;1.77;;;;;;;;;;12584394;28;20489;-80
2022/05/25 17:45:53;;;;;;;3.50;2.40;;;;;;;;;;12601457;28;20036;-80
2022/05/25 17:51:55;;;;;;;4.55;3.05;;;;;;;;;;12601159;28;20037;-81
2022/05/25 17:57:57;;;;;;;4.00;2.42;;;;;;;;;;12582319;28;20036;-81
2022/05/25 18:04:00;;;;;;;3.08;2.00;;;;;;;;;;12565625;28;20036;-82
2022/05/25 18:10:03;;;;;;;4.40;2.42;;;;;;;;;;12564510;28;20525;-82
2022/05/25 18:16:06;;;;;;;5.53;2.45;;;;;;;;;;12599656;28;20391;-82
2022/05/25 18:22:08;;;;;;;4.70;2.10;;;;;;;;;;12599555;28;20500;-81
2022/05/25 18:28:10;;;;;;;3.35;1.90;;;;;;;;;;12581135;28;20051;-82
2022/05/25 18:34:12;;;;;;;3.50;1.80;;;;;;;;;;12581353;28;20052;-81
2022/05/25 18:40:14;;;;;;;2.40;1.67;;;;;;;;;;12580629;28;20036;-82
2022/05/25 18:46:15;;;;;;;2.00;1.58;;;;;;;;;;12598135;28;20048;-81
2022/05/25 18:52:17;;;;;;;4.95;2.00;;;;;;;;;;12579964;28;20032;-83
2022/05/25 18:58:19;;;;;;;2.72;1.63;;;;;;;;;;12580145;28;20040;-83
2022/05/25 19:04:26;;;;;;;2.72;1.70;;;;;;;;;;12597980;28;20035;-83
2022/05/25 19:10:28;;;;;;;2.13;1.60;;;;;;;;;;12598527;28;20040;-83
2022/05/25 19:16:29;;;;;;;4.63;1.90;;;;;;;;;;12596922;28;20493;-83
2022/05/25 19:22:34;;;;;;;1.73;1.30;;;;;;;;;;12562212;28;20040;-83
2022/05/25 19:28:36;;;;;;;2.53;1.88;;;;;;;;;;12596150;28;20040;-83
2022/05/25 19:34:38;;;;;;;2.30;1.80;;;;;;;;;;12595689;28;20056;-82
2022/05/25 19:40:48;;;;;;;3.85;1.80;;;;;;;;;;12577672;28;20032;-83
2022/05/25 19:46:50;;;;;;;3.78;1.92;;;;;;;;;;12561916;28;20501;-82
2022/05/25 19:52:52;;;;;;;2.65;1.55;;;;;;;;;;12595158;28;20397;-82
2022/05/25 19:58:54;;;;;;;2.63;1.60;;;;;;;;;;12594792;28;20039;-82
2022/05/25 20:04:56;;;;;;;1.88;1.73;;;;;;;;;;12577348;28;20028;-82
2022/05/25 20:10:58;;;;;;;1.85;1.40;;;;;;;;;;12560733;28;20056;-82
2022/05/25 20:17:00;;;;;;;1.75;1.52;;;;;;;;;;12576401;28;20039;-83
2022/05/25 20:23:01;;;;;;;1.70;1.38;;;;;;;;;;12559378;28;20032;-82
2022/05/25 20:29:03;;;;;;;2.38;1.98;;;;;;;;;;12575401;28;20517;-82
2022/05/25 20:35:06;;;;;;;3.35;2.28;;;;;;;;;;12559271;28;20048;-82
2022/05/25 20:41:08;;;;;;;2.25;1.90;;;;;;;;;;12575612;28;20041;-83
2022/05/25 20:47:10;;;;;;;3.95;1.67;;;;;;;;;;12593679;28;20520;-82
2022/05/25 20:53:12;;;;;;;2.00;1.80;;;;;;;;;;12593584;28;20473;-82
2022/05/25 20:59:14;;;;;;;1.90;1.38;;;;;;;;;;12575693;28;20039;-82
2022/05/25 21:05:16;;;;;;;3.35;1.40;;;;;;;;;;12575772;28;20037;-82
2022/05/25 21:11:18;;;;;;;2.97;1.63;;;;;;;;;;12574890;28;20044;-82
2022/05/25 21:17:21;;;;;;;3.33;1.83;;;;;;;;;;12575385;28;20032;-82
2022/05/25 21:23:23;;;;;;;2.25;1.55;;;;;;;;;;12558753;28;20036;-82
2022/05/25 21:29:25;;;;;;;2.50;1.83;;;;;;;;;;12574937;28;20053;-82
2022/05/25 21:35:27;;;;;;;2.28;1.75;;;;;;;;;;12593181;28;20064;-82
2022/05/25 21:41:28;;;;;;;1.60;1.50;;;;;;;;;;12574835;28;20040;-82
2022/05/25 21:53:51;;;;;;;3.88;1.75;;;;;;;;;;12583186;28;20531;-82
2022/05/25 21:59:53;;;;;;;1.70;1.33;;;;;;;;;;12566284;28;20267;-82
2022/05/25 22:05:55;;;;;;;3.90;1.92;;;;;;;;;;12583215;28;20041;-82
2022/05/25 22:11:56;;;;;;;;;;;;;;;;;;12582810;28;20398;-81
2022/05/25 22:17:58;;;;;;;2.83;2.07;;;;;;;;;;12565665;28;19916;-82
2022/05/25 22:24:03;;;;;;;;;;;;;;;;;;12600132;28;20032;-81
2022/05/25 22:30:05;;;;;;;2.08;1.50;;;;;;;;;;12565232;28;19916;-81
2022/05/25 22:36:07;;;;;;;2.85;1.85;;;;;;;;;;12581697;28;20056;-82
2022/05/25 22:42:08;;;;;;;2.70;1.75;;;;;;;;;;12581292;28;20041;-82
2022/05/25 22:48:10;;;;;;;;;;;;;;;;;;12599122;28;20048;-81
2022/05/25 22:54:12;;;;;;;3.50;2.73;;;;;;;;;;12563691;28;19915;-81
2022/05/25 23:00:14;;;;;;;3.35;2.10;;;;;;;;;;12564355;28;20044;-81
2022/05/25 23:06:16;;;;;;;3.53;2.45;;;;;;;;;;12580562;28;20047;-81
2022/05/25 23:12:19;;;;;;;3.28;2.40;;;;;;;;;;12580094;28;20040;-82
2022/05/25 23:18:21;;;;;;;1.98;1.88;;;;;;;;;;12579528;28;20059;-81
2022/05/25 23:30:42;;;;;;;3.55;2.70;;;;;;;;;;12596941;28;20044;-82
2022/05/25 23:36:44;;;;;;;;;;;;;;;;;;12597262;28;20413;-81
2022/05/25 23:49:07;;;;;;;;;;;;;;;;;;12596206;28;19924;-81
2022/05/25 23:55:08;;;;;;;;;;;;;;;;;;12597766;28;19908;-81
